createdAt,value
2022-12-08T00:01:41.985Z,100454.14
2022-12-08T00:04:11.067Z,100459.99
2022-12-08T00:07:02.367Z,100464.59
2022-12-08T00:09:42.123Z,100461.70
2022-12-08T00:12:16.905Z,100463.06
2022-12-08T00:14:47.731Z,100459.98
2022-12-08T00:17:17.362Z,100459.41
2022-12-08T00:19:45.935Z,100459.42
2022-12-08T00:22:15.343Z,100456.94
2022-12-08T00:24:47.616Z,100464.23
2022-12-08T00:27:18.212Z,100471.84
2022-12-08T00:29:46.868Z,100471.44
2022-12-08T00:32:15.320Z,100471.11
2022-12-08T00:34:43.681Z,100470.02
2022-12-08T00:37:11.970Z,100475.17
2022-12-08T00:39:40.213Z,100475.84
2022-12-08T00:42:14.345Z,100478.21
2022-12-08T00:44:44.145Z,100479.73
2022-12-08T00:47:13.795Z,100482.34
2022-12-08T00:49:42.417Z,100486.06
2022-12-08T00:52:10.782Z,100484.07
2022-12-08T00:54:39.087Z,100485.45
2022-12-08T00:57:07.494Z,100485.91
2022-12-08T00:59:35.870Z,100485.38
2022-12-08T01:02:04.258Z,100483.34
2022-12-08T01:04:32.630Z,100485.54
2022-12-08T01:07:00.925Z,100486.98
2022-12-08T01:09:29.289Z,100484.31
2022-12-08T01:11:57.678Z,100484.48
2022-12-08T01:14:26.183Z,100484.00
2022-12-08T01:16:55.189Z,100480.27
2022-12-08T01:19:23.788Z,100474.89
2022-12-08T01:21:52.154Z,100471.79
2022-12-08T01:24:21.608Z,100473.41
2022-12-08T01:26:51.661Z,100471.56
2022-12-08T01:29:20.012Z,100470.56
2022-12-08T01:31:48.472Z,100470.83
2022-12-08T01:34:16.853Z,100467.36
2022-12-08T01:36:45.226Z,100468.18
2022-12-08T01:39:18.972Z,100474.80
2022-12-08T01:41:48.036Z,100474.98
2022-12-08T01:44:16.284Z,100474.39
2022-12-08T01:46:50.037Z,100479.19
2022-12-08T01:49:34.778Z,100485.88
2022-12-08T01:52:05.263Z,100483.64
2022-12-08T01:54:44.887Z,100483.58
2022-12-08T01:57:21.728Z,100487.99
2022-12-08T02:00:08.158Z,100485.38
2022-12-08T02:02:48.322Z,100484.12
2022-12-08T02:05:19.055Z,100480.80
2022-12-08T02:07:48.720Z,100479.84
2022-12-08T02:10:22.691Z,100481.48
2022-12-08T02:12:54.683Z,100485.96
2022-12-08T02:16:10.233Z,100486.39
2022-12-08T02:22:14.543Z,100485.80
2022-12-08T02:25:03.672Z,100485.05
2022-12-08T02:27:56.817Z,100486.23
2022-12-08T02:31:12.101Z,100489.42
2022-12-08T02:34:08.282Z,100488.61
2022-12-08T02:37:04.369Z,100485.83
2022-12-08T02:39:44.028Z,100485.19
2022-12-08T02:42:14.994Z,100490.13
2022-12-08T02:44:55.403Z,100494.48
2022-12-08T02:47:27.861Z,100499.34
2022-12-08T02:49:58.003Z,100498.14
2022-12-08T02:52:26.259Z,100503.29
2022-12-08T02:55:06.607Z,100509.30
2022-12-08T02:58:15.235Z,100511.23
2022-12-08T03:01:09.463Z,100510.80
2022-12-08T03:03:59.870Z,100514.86
2022-12-08T03:06:39.269Z,100516.23
2022-12-08T03:09:16.138Z,100514.55
2022-12-08T03:12:31.992Z,100516.13
2022-12-08T03:15:06.533Z,100520.41
2022-12-08T03:17:36.916Z,100522.83
2022-12-08T03:20:11.063Z,100525.04
2022-12-08T03:22:42.090Z,100528.60
2022-12-08T03:25:14.933Z,100532.33
2022-12-08T03:27:44.061Z,100535.69
2022-12-08T03:30:12.975Z,100536.43
2022-12-08T03:32:48.035Z,100533.96
2022-12-08T03:35:28.162Z,100533.32
2022-12-08T03:38:12.716Z,100532.32
2022-12-08T03:40:41.842Z,100533.33
2022-12-08T03:43:10.767Z,100535.16
2022-12-08T03:45:39.091Z,100537.75
2022-12-08T03:48:07.387Z,100535.84
2022-12-08T03:50:35.728Z,100536.91
2022-12-08T03:53:04.020Z,100539.59
2022-12-08T03:55:32.322Z,100538.27
2022-12-08T03:58:00.697Z,100544.13
2022-12-08T04:00:29.052Z,100548.84
2022-12-08T04:02:57.403Z,100545.75
2022-12-08T04:05:25.741Z,100544.48
2022-12-08T04:07:58.491Z,100542.35
2022-12-08T04:10:27.057Z,100543.09
2022-12-08T04:12:57.278Z,100545.14
2022-12-08T04:15:25.568Z,100541.46
2022-12-08T04:17:53.902Z,100538.41
2022-12-08T04:20:22.259Z,100533.58
2022-12-08T04:22:50.585Z,100533.21
2022-12-08T04:25:19.113Z,100532.77
2022-12-08T04:27:47.433Z,100529.56
2022-12-08T04:30:15.800Z,100528.11
2022-12-08T04:32:47.378Z,100523.88
2022-12-08T04:35:16.227Z,100525.61
2022-12-08T04:37:44.664Z,100522.49
2022-12-08T04:40:13.759Z,100521.20
2022-12-08T04:42:42.787Z,100518.95
2022-12-08T04:45:11.724Z,100516.09
2022-12-08T04:47:40.059Z,100515.25
2022-12-08T04:50:09.055Z,100515.66
2022-12-08T04:52:37.549Z,100518.83
2022-12-08T04:55:06.509Z,100519.00
2022-12-08T04:57:34.875Z,100521.60
2022-12-08T05:00:06.423Z,100520.85
2022-12-08T05:02:35.784Z,100523.90
2022-12-08T05:05:05.352Z,100531.30
2022-12-08T05:07:34.131Z,100527.47
2022-12-08T05:10:03.463Z,100532.02
2022-12-08T05:12:32.037Z,100530.63
2022-12-08T05:15:00.514Z,100528.23
2022-12-08T05:17:28.846Z,100529.55
2022-12-08T05:19:57.166Z,100530.20
2022-12-08T05:22:25.509Z,100533.59
2022-12-08T05:24:53.793Z,100537.42
2022-12-08T05:27:22.060Z,100543.98
2022-12-08T05:29:50.373Z,100546.47
2022-12-08T05:32:18.705Z,100548.04
2022-12-08T05:34:47.161Z,100554.73
2022-12-08T05:37:15.688Z,100556.88
2022-12-08T05:39:43.974Z,100563.85
2022-12-08T05:42:12.271Z,100563.98
2022-12-08T05:44:40.600Z,100563.00
2022-12-08T05:47:08.985Z,100566.84
2022-12-08T05:49:37.279Z,100572.47
2022-12-08T05:52:05.894Z,100574.77
2022-12-08T05:54:34.194Z,100586.63
2022-12-08T05:57:02.501Z,100585.52
2022-12-08T05:59:30.785Z,100584.66
2022-12-08T06:01:59.186Z,100586.48
2022-12-08T06:04:27.586Z,100587.08
2022-12-08T06:06:55.872Z,100588.15
2022-12-08T06:09:24.423Z,100587.39
2022-12-08T06:11:52.750Z,100593.54
2022-12-08T06:14:21.231Z,100599.30
2022-12-08T06:16:49.597Z,100605.13
2022-12-08T06:19:18.057Z,100604.89
2022-12-08T06:21:46.311Z,100613.39
2022-12-08T06:24:15.045Z,100619.80
2022-12-08T06:26:43.545Z,100623.30
2022-12-08T06:29:11.861Z,100629.98
2022-12-08T06:31:40.507Z,100628.27
2022-12-08T06:34:08.903Z,100632.66
2022-12-08T06:36:37.307Z,100632.33
2022-12-08T06:39:05.687Z,100630.09
2022-12-08T06:41:54.136Z,100632.64
2022-12-08T06:44:22.724Z,100635.15
2022-12-08T06:46:51.109Z,100632.77
2022-12-08T06:49:19.437Z,100636.21
2022-12-08T06:51:47.730Z,100634.03
2022-12-08T06:54:16.004Z,100634.46
2022-12-08T06:56:44.268Z,100633.74
2022-12-08T06:59:12.638Z,100633.98
2022-12-08T07:01:41.060Z,100633.27
2022-12-08T07:04:09.774Z,100629.69
2022-12-08T07:06:38.232Z,100628.88
2022-12-08T07:09:06.594Z,100632.38
2022-12-08T07:11:35.008Z,100638.67
2022-12-08T07:14:03.354Z,100641.69
2022-12-08T07:16:31.742Z,100648.55
2022-12-08T07:19:00.909Z,100656.38
2022-12-08T07:21:29.276Z,100654.45
2022-12-08T07:23:58.134Z,100652.44
2022-12-08T07:26:27.128Z,100652.91
2022-12-08T07:28:55.455Z,100654.88
2022-12-08T07:31:26.193Z,100653.45
2022-12-08T07:33:56.940Z,100652.19
2022-12-08T07:36:25.688Z,100661.70
2022-12-08T07:38:54.544Z,100660.43
2022-12-08T07:41:25.365Z,100665.89
2022-12-08T07:43:54.298Z,100657.11
2022-12-08T07:46:24.924Z,100656.15
2022-12-08T07:48:54.793Z,100657.09
2022-12-08T07:51:25.028Z,100661.27
2022-12-08T07:53:54.603Z,100658.52
2022-12-08T07:56:23.570Z,100663.20
2022-12-08T07:58:51.946Z,100661.77
2022-12-08T08:01:29.534Z,100665.77
2022-12-08T08:04:02.068Z,100668.95
2022-12-08T08:06:33.087Z,100672.64
2022-12-08T08:09:01.377Z,100680.15
2022-12-08T08:11:30.056Z,100682.83
2022-12-08T08:13:58.488Z,100683.47
2022-12-08T08:16:27.251Z,100683.65
2022-12-08T08:18:55.930Z,100681.86
2022-12-08T08:24:12.604Z,100678.36
2022-12-08T08:26:40.918Z,100675.95
2022-12-08T08:29:09.207Z,100679.98
2022-12-08T08:31:37.590Z,100682.92
2022-12-08T08:34:06.680Z,100692.75
2022-12-08T08:36:36.107Z,100688.65
2022-12-08T08:39:04.695Z,100690.40
2022-12-08T08:41:33.615Z,100688.73
2022-12-08T08:44:02.028Z,100689.14
2022-12-08T08:46:30.753Z,100685.04
2022-12-08T08:48:59.264Z,100675.82
2022-12-08T08:51:28.758Z,100674.31
2022-12-08T08:53:57.675Z,100673.44
2022-12-08T08:56:26.294Z,100670.34
2022-12-08T08:58:55.009Z,100668.42
2022-12-08T09:01:26.934Z,100669.31
2022-12-08T09:03:56.479Z,100669.55
2022-12-08T09:06:26.099Z,100670.57
2022-12-08T09:08:54.453Z,100664.17
2022-12-08T09:11:23.663Z,100664.83
2022-12-08T09:13:53.780Z,100665.25
2022-12-08T09:16:23.246Z,100668.61
2022-12-08T09:18:52.115Z,100665.95
2022-12-08T09:21:25.968Z,100671.31
2022-12-08T09:23:58.345Z,100665.45
2022-12-08T09:26:28.852Z,100667.72
2022-12-08T09:28:58.249Z,100664.13
2022-12-08T09:31:26.908Z,100666.17
2022-12-08T09:33:55.283Z,100663.63
2022-12-08T09:36:23.683Z,100663.36
2022-12-08T09:38:53.838Z,100657.73
2022-12-08T09:41:50.211Z,100656.92
2022-12-08T09:44:42.430Z,100651.33
2022-12-08T09:47:39.917Z,100652.35
2022-12-08T09:50:31.306Z,100646.17
2022-12-08T09:53:09.065Z,100650.92
2022-12-08T09:55:51.045Z,100654.20
2022-12-08T09:59:05.426Z,100651.27
2022-12-08T10:01:39.893Z,100656.39
2022-12-08T10:04:22.671Z,100657.23
2022-12-08T10:07:18.236Z,100660.83
2022-12-08T10:10:12.586Z,100658.41
2022-12-08T10:13:24.798Z,100648.78
2022-12-08T10:16:34.941Z,100650.06
2022-12-08T10:19:18.148Z,100645.58
2022-12-08T10:21:46.935Z,100639.27
2022-12-08T10:24:32.590Z,100639.06
2022-12-08T10:27:02.570Z,100636.86
2022-12-08T10:29:30.843Z,100632.91
2022-12-08T10:32:00.201Z,100630.14
2022-12-08T10:34:28.594Z,100632.48
2022-12-08T10:37:00.766Z,100630.46
2022-12-08T10:39:45.811Z,100634.09
2022-12-08T10:42:14.241Z,100635.69
2022-12-08T10:45:09.870Z,100636.20
2022-12-08T10:47:45.336Z,100635.29
2022-12-08T10:50:28.080Z,100634.17
2022-12-08T10:53:08.975Z,100635.90
2022-12-08T10:55:51.108Z,100643.09
2022-12-08T10:58:42.883Z,100641.23
2022-12-08T11:01:25.909Z,100644.79
2022-12-08T11:03:59.270Z,100644.65
2022-12-08T11:06:40.894Z,100642.88
2022-12-08T11:09:18.266Z,100641.73
2022-12-08T11:11:56.907Z,100637.13
2022-12-08T11:14:33.545Z,100635.08
2022-12-08T11:17:07.413Z,100630.30
2022-12-08T11:19:41.809Z,100626.21
2022-12-08T11:22:40.902Z,100627.00
2022-12-08T11:25:11.869Z,100620.50
2022-12-08T11:27:46.686Z,100617.66
2022-12-08T11:30:28.123Z,100608.76
2022-12-08T11:33:16.519Z,100602.92
2022-12-08T11:35:50.445Z,100601.71
2022-12-08T11:38:24.813Z,100602.20
2022-12-08T11:41:05.037Z,100603.66
2022-12-08T11:43:55.037Z,100609.61
2022-12-08T11:46:34.686Z,100612.58
2022-12-08T11:49:09.819Z,100615.56
2022-12-08T11:52:00.975Z,100618.63
2022-12-08T11:54:44.708Z,100611.51
2022-12-08T11:57:21.005Z,100613.77
2022-12-08T11:59:52.551Z,100611.75
2022-12-08T12:02:31.236Z,100609.17
2022-12-08T12:05:39.883Z,100604.98
2022-12-08T12:08:28.665Z,100603.74
2022-12-08T12:12:03.304Z,100600.37
2022-12-08T12:14:55.825Z,100599.46
2022-12-08T12:17:45.331Z,100597.08
2022-12-08T12:20:37.477Z,100595.78
2022-12-08T12:23:27.613Z,100598.75
2022-12-08T12:26:01.259Z,100604.85
2022-12-08T12:28:46.509Z,100603.84
2022-12-08T12:31:19.694Z,100597.48
2022-12-08T12:33:50.008Z,100600.79
2022-12-08T12:36:18.429Z,100594.44
2022-12-08T12:39:01.332Z,100593.98
2022-12-08T12:41:48.988Z,100587.95
2022-12-08T12:44:29.416Z,100589.33
2022-12-08T12:46:59.212Z,100594.73
2022-12-08T12:49:39.767Z,100595.52
2022-12-08T12:52:10.627Z,100588.40
2022-12-08T12:54:42.470Z,100591.15
2022-12-08T12:57:10.653Z,100595.60
2022-12-08T12:59:55.831Z,100595.03
2022-12-08T13:02:28.194Z,100594.44
2022-12-08T13:05:03.328Z,100590.43
2022-12-08T13:07:34.742Z,100590.05
2022-12-08T13:10:24.810Z,100594.39
2022-12-08T13:13:07.107Z,100588.67
2022-12-08T13:15:36.208Z,100582.98
2022-12-08T13:18:05.707Z,100581.23
2022-12-08T13:20:42.882Z,100582.88
2022-12-08T13:23:38.032Z,100581.52
2022-12-08T13:26:23.748Z,100582.38
2022-12-08T13:29:04.218Z,100583.48
2022-12-08T13:31:37.920Z,100581.70
2022-12-08T13:34:07.996Z,100581.94
2022-12-08T13:36:39.576Z,100584.21
2022-12-08T13:39:15.973Z,100584.13
2022-12-08T13:41:49.677Z,100583.98
2022-12-08T13:47:34.530Z,100579.96
2022-12-08T13:53:48.994Z,100583.73
2022-12-08T13:56:59.641Z,100584.69
2022-12-08T13:58:47.950Z,100586.20
2022-12-08T14:01:20.686Z,100585.85
2022-12-08T14:04:42.172Z,100590.11
2022-12-08T14:06:56.046Z,100589.08
2022-12-08T14:09:27.412Z,100587.59
2022-12-08T14:12:00.790Z,100587.25
2022-12-08T14:17:31.840Z,100583.33
2022-12-08T14:20:12.286Z,100580.41
2022-12-08T14:22:41.266Z,100584.55
2022-12-08T14:25:14.685Z,100588.73
2022-12-08T14:27:43.419Z,100584.48
2022-12-08T14:30:14.808Z,100584.27
2022-12-08T14:33:04.008Z,100582.83
2022-12-08T14:35:39.647Z,100583.16
2022-12-08T14:38:16.159Z,100581.02
2022-12-08T14:40:46.135Z,100578.83
2022-12-08T14:43:19.535Z,100576.72
2022-12-08T14:45:49.277Z,100579.42
2022-12-08T14:48:38.739Z,100577.14
2022-12-08T14:51:19.087Z,100580.88
2022-12-08T14:53:56.280Z,100580.29
2022-12-08T14:56:36.806Z,100577.77
2022-12-08T14:59:15.491Z,100570.06
2022-12-08T15:01:44.137Z,100572.80
2022-12-08T15:04:12.238Z,100572.21
2022-12-08T15:07:17.637Z,100569.62
2022-12-08T15:09:49.066Z,100564.87
2022-12-08T15:12:26.651Z,100570.73
2022-12-08T15:14:55.695Z,100576.19
2022-12-08T15:17:43.764Z,100582.69
2022-12-08T15:20:42.870Z,100579.58
2022-12-08T15:23:20.420Z,100582.52
2022-12-08T15:25:49.613Z,100591.21
2022-12-08T15:28:19.832Z,100587.74
2022-12-08T15:30:49.950Z,100591.06
2022-12-08T15:33:18.286Z,100583.32
2022-12-08T15:35:47.245Z,100580.32
2022-12-08T15:38:24.825Z,100583.34
2022-12-08T15:40:53.499Z,100583.58
2022-12-08T15:43:22.316Z,100581.32
2022-12-08T15:45:59.089Z,100583.13
2022-12-08T15:48:30.070Z,100577.80
2022-12-08T15:50:58.350Z,100577.40
2022-12-08T15:53:26.507Z,100580.67
2022-12-08T15:58:58.773Z,100582.45
2022-12-08T16:01:27.383Z,100584.01
2022-12-08T16:09:38.590Z,100583.84
2022-12-08T16:13:56.122Z,100582.09
2022-12-08T16:16:00.697Z,100583.70
2022-12-08T16:18:35.755Z,100589.00
2022-12-08T16:21:16.920Z,100594.89
2022-12-08T16:23:52.614Z,100599.77
2022-12-08T16:29:18.705Z,100600.72
2022-12-08T16:31:47.171Z,100598.52
2022-12-08T16:34:16.002Z,100596.02
2022-12-08T16:36:44.177Z,100595.97
2022-12-08T16:39:13.737Z,100587.98
2022-12-08T16:42:11.008Z,100576.64
2022-12-08T16:44:42.022Z,100576.09
2022-12-08T16:47:10.689Z,100569.86
2022-12-08T16:49:39.419Z,100568.92
2022-12-08T16:52:07.608Z,100567.98
2022-12-08T16:54:35.768Z,100563.09
2022-12-08T16:57:03.969Z,100564.08
2022-12-08T16:59:32.223Z,100560.06
2022-12-08T17:02:00.432Z,100566.31
2022-12-08T17:04:32.018Z,100572.14
2022-12-08T17:07:00.650Z,100576.20
2022-12-08T17:09:30.959Z,100577.25
2022-12-08T17:12:03.663Z,100577.10
2022-12-08T17:14:34.732Z,100578.86
2022-12-08T17:17:03.551Z,100580.48
2022-12-08T17:19:32.378Z,100579.64
2022-12-08T17:22:02.228Z,100575.98
2022-12-08T17:24:31.289Z,100569.02
2022-12-08T17:27:04.358Z,100568.21
2022-12-08T17:29:34.065Z,100571.86
2022-12-08T17:32:02.435Z,100573.33
2022-12-08T17:34:30.720Z,100573.58
2022-12-08T17:36:58.941Z,100574.89
2022-12-08T17:39:27.204Z,100570.53
2022-12-08T17:41:55.395Z,100577.61
2022-12-08T17:44:23.691Z,100579.57
2022-12-08T17:46:53.303Z,100578.27
2022-12-08T17:49:24.294Z,100578.83
2022-12-08T17:51:54.396Z,100581.78
2022-12-08T17:54:22.661Z,100581.09
2022-12-08T17:56:51.028Z,100577.63
2022-12-08T17:59:19.340Z,100576.19
2022-12-08T18:01:47.655Z,100570.95
2022-12-08T18:04:15.899Z,100572.03
2022-12-08T18:06:44.111Z,100574.87
2022-12-08T18:09:12.485Z,100575.70
2022-12-08T18:11:41.249Z,100575.91
2022-12-08T18:14:10.286Z,100570.41
2022-12-08T18:16:41.176Z,100564.10
2022-12-08T18:19:12.081Z,100558.71
2022-12-08T18:21:40.788Z,100555.32
2022-12-08T18:24:15.414Z,100554.81
2022-12-08T18:26:43.668Z,100552.52
2022-12-08T18:29:11.874Z,100545.14
2022-12-08T18:31:40.055Z,100549.77
2022-12-08T18:34:08.223Z,100553.81
2022-12-08T18:36:36.388Z,100563.27
2022-12-08T18:39:10.514Z,100565.85
2022-12-08T18:41:39.286Z,100570.08
2022-12-08T18:44:07.487Z,100567.27
2022-12-08T18:46:35.730Z,100559.95
2022-12-08T18:49:04.001Z,100548.29
2022-12-08T18:51:32.145Z,100551.16
2022-12-08T18:54:00.391Z,100557.00
2022-12-08T18:56:33.258Z,100561.36
2022-12-08T18:59:08.207Z,100565.20
2022-12-08T19:01:38.159Z,100568.83
2022-12-08T19:06:56.306Z,100558.69
2022-12-08T19:09:27.006Z,100561.16
2022-12-08T19:11:56.138Z,100568.39
2022-12-08T19:14:28.260Z,100572.18
2022-12-08T19:17:00.095Z,100563.13
2022-12-08T19:19:28.359Z,100556.95
2022-12-08T19:21:56.708Z,100549.66
2022-12-08T19:24:25.126Z,100546.60
2022-12-08T19:26:53.299Z,100552.89
2022-12-08T19:29:21.508Z,100555.70
2022-12-08T19:31:49.744Z,100555.17
2022-12-08T19:34:18.049Z,100554.89
2022-12-08T19:36:46.346Z,100557.83
2022-12-08T19:39:40.760Z,100568.00
2022-12-08T19:42:35.552Z,100562.17
2022-12-08T19:45:12.026Z,100556.93
2022-12-08T19:47:40.990Z,100566.83
2022-12-08T19:50:29.277Z,100565.69
2022-12-08T19:52:57.780Z,100550.19
2022-12-08T19:55:26.591Z,100546.89
2022-12-08T19:57:56.860Z,100551.52
2022-12-08T20:00:25.539Z,100548.70
2022-12-08T20:02:53.734Z,100547.42
2022-12-08T20:05:23.366Z,100538.58
2022-12-08T20:07:55.682Z,100533.09
2022-12-08T20:10:29.332Z,100530.95
2022-12-08T20:13:17.511Z,100532.48
2022-12-08T20:15:46.419Z,100527.66
2022-12-08T20:18:15.879Z,100517.30
2022-12-08T20:20:45.191Z,100511.38
2022-12-08T20:23:14.602Z,100505.10
2022-12-08T20:25:44.875Z,100501.85
2022-12-08T20:28:13.048Z,100495.80
2022-12-08T20:30:42.656Z,100494.71
2022-12-08T20:33:13.279Z,100499.04
2022-12-08T20:35:41.476Z,100493.98
2022-12-08T20:38:09.878Z,100488.34
2022-12-08T20:40:42.667Z,100485.17
2022-12-08T20:43:10.920Z,100487.42
2022-12-08T20:45:39.249Z,100490.73
2022-12-08T20:48:07.622Z,100487.70
2022-12-08T20:50:35.871Z,100489.67
2022-12-08T20:53:04.217Z,100492.81
2022-12-08T20:55:32.662Z,100495.48
2022-12-08T20:58:01.373Z,100498.39
2022-12-08T21:00:29.649Z,100497.36
2022-12-08T21:02:58.041Z,100491.83
2022-12-08T21:05:26.481Z,100489.05
2022-12-08T21:07:55.012Z,100492.44
2022-12-08T21:10:23.187Z,100484.23
2022-12-08T21:12:51.347Z,100481.27
2022-12-08T21:15:19.510Z,100476.92
2022-12-08T21:17:47.738Z,100473.11
2022-12-08T21:20:16.368Z,100473.17
2022-12-08T21:22:44.631Z,100465.41
2022-12-08T21:25:12.980Z,100461.61
2022-12-08T21:27:41.483Z,100460.95
2022-12-08T21:30:10.831Z,100463.06
2022-12-08T21:32:40.113Z,100463.73
2022-12-08T21:35:09.321Z,100463.38
2022-12-08T21:37:37.687Z,100455.79
2022-12-08T21:40:07.297Z,100453.87
2022-12-08T21:42:45.196Z,100442.08
2022-12-08T21:45:18.437Z,100440.92
2022-12-08T21:47:48.370Z,100441.05
2022-12-08T21:50:17.253Z,100440.46
2022-12-08T21:52:47.576Z,100443.70
2022-12-08T21:55:17.435Z,100443.55
2022-12-08T21:57:45.737Z,100441.20
2022-12-08T22:00:16.216Z,100440.13
2022-12-08T22:02:45.624Z,100442.77
2022-12-08T22:05:14.027Z,100443.82
2022-12-08T22:07:42.500Z,100443.16
2022-12-08T22:10:11.530Z,100443.77
2022-12-08T22:12:40.386Z,100441.74
2022-12-08T22:15:10.183Z,100434.85
2022-12-08T22:17:40.041Z,100424.22
2022-12-08T22:20:11.767Z,100413.30
2022-12-08T22:22:40.926Z,100411.59
2022-12-08T22:25:12.662Z,100404.02
2022-12-08T22:27:41.550Z,100407.61
2022-12-08T22:30:10.804Z,100406.68
2022-12-08T22:32:39.990Z,100402.84
2022-12-08T22:35:08.817Z,100394.95
2022-12-08T22:37:37.036Z,100397.56
2022-12-08T22:40:06.558Z,100397.31
2022-12-08T22:42:34.861Z,100402.39
2022-12-08T22:45:03.074Z,100395.30
2022-12-08T22:47:31.231Z,100396.37
2022-12-08T22:49:59.358Z,100398.48
2022-12-08T22:52:27.689Z,100391.77
2022-12-08T22:54:55.827Z,100387.19
2022-12-08T22:57:23.923Z,100380.95
2022-12-08T22:59:52.295Z,100379.25
2022-12-08T23:02:20.497Z,100375.27
2022-12-08T23:04:48.984Z,100374.34
2022-12-08T23:07:17.380Z,100373.13
2022-12-08T23:09:45.596Z,100369.02
2022-12-08T23:12:14.053Z,100370.39
2022-12-08T23:14:42.528Z,100368.02
2022-12-08T23:17:11.282Z,100364.14
2022-12-08T23:19:39.647Z,100361.65
2022-12-08T23:22:07.990Z,100357.98
2022-12-08T23:24:36.267Z,100365.83
2022-12-08T23:27:04.625Z,100369.21
2022-12-08T23:29:32.929Z,100367.21
2022-12-08T23:32:01.252Z,100376.99
2022-12-08T23:34:29.366Z,100383.41
2022-12-08T23:36:57.561Z,100379.76
2022-12-08T23:39:25.757Z,100380.69
2022-12-08T23:41:53.886Z,100376.64
2022-12-08T23:44:22.008Z,100370.68
2022-12-08T23:46:50.446Z,100374.86
2022-12-08T23:49:18.844Z,100380.34
2022-12-08T23:51:47.118Z,100380.91
2022-12-08T23:54:15.442Z,100376.34
2022-12-08T23:56:44.048Z,100370.67
2022-12-08T23:59:12.205Z,100364.77
